Aviation Digital Data Service (ADDS)

Output produced by METARs form (0841 UTC 24 March 2019)
found at http://www.aviationweather.gov/metar/data/
 
Forecast for: ZWSH (KASHI , CN)
Text: TAF ZWSH 240312Z 2406/2506 06004MPS 2500 DU SCT040 TX16/2409Z TN08/2500Z
Forecast period: 0600 to 1300 UTC 24 March 2019
Forecast type: FROM: standard forecast or significant change
Winds: from the ENE (60 degrees) at 9 MPH (8 knots; 4.1 m/s)
Visibility: 1.55 miles (2.49 km)
Ceiling: at least 12,000 feet AGL
Clouds: scattered clouds at 4000 feet AGL
Weather: DU  (widespread dust)
Text: BECMG 2413/2414 32004MPS 3100
Forecast period: 1300 UTC 24 March 2019 to 0600 UTC 25 March 2019
Forecast type: BECOMING: Conditions expected to become as follows by 1400 UTC 24 March 2019
Winds: from the NW (320 degrees) at 9 MPH (8 knots; 4.1 m/s)
Visibility: 1.93 miles (3.11 km)
Ceiling: at least 12,000 feet AGL
Clouds: scattered clouds at 4000 feet AGL
Weather: DU  (widespread dust)